sensor_id;sensor_type;location;lat;lon;timestamp;P1;durP1;ratioP1;P2;durP2;ratioP2
16407;SDS011;8313;49.894;8.084;2023-08-12T00:00:30;4.43;;;3.87;;
16407;SDS011;8313;49.894;8.084;2023-08-12T00:02:55;4.87;;;4.37;;
16407;SDS011;8313;49.894;8.084;2023-08-12T00:05:21;4.70;;;4.20;;
16407;SDS011;8313;49.894;8.084;2023-08-12T00:07:48;4.90;;;4.27;;
16407;SDS011;8313;49.894;8.084;2023-08-12T00:10:13;4.43;;;4.03;;
16407;SDS011;8313;49.894;8.084;2023-08-12T00:12:40;5.00;;;4.60;;
16407;SDS011;8313;49.894;8.084;2023-08-12T00:15:06;4.73;;;4.20;;
16407;SDS011;8313;49.894;8.084;2023-08-12T00:17:33;4.93;;;4.43;;
16407;SDS011;8313;49.894;8.084;2023-08-12T00:20:01;5.30;;;4.80;;
16407;SDS011;8313;49.894;8.084;2023-08-12T00:22:30;5.40;;;5.00;;
16407;SDS011;8313;49.894;8.084;2023-08-12T00:24:56;4.77;;;4.37;;
16407;SDS011;8313;49.894;8.084;2023-08-12T00:27:22;4.27;;;3.97;;
16407;SDS011;8313;49.894;8.084;2023-08-12T00:29:48;4.33;;;4.00;;
16407;SDS011;8313;49.894;8.084;2023-08-12T00:32:14;4.97;;;4.50;;
16407;SDS011;8313;49.894;8.084;2023-08-12T00:34:39;4.47;;;4.17;;
16407;SDS011;8313;49.894;8.084;2023-08-12T00:37:05;4.70;;;4.30;;
16407;SDS011;8313;49.894;8.084;2023-08-12T00:39:30;4.30;;;3.90;;
16407;SDS011;8313;49.894;8.084;2023-08-12T00:41:56;4.50;;;4.10;;
16407;SDS011;8313;49.894;8.084;2023-08-12T00:44:22;5.27;;;4.80;;
16407;SDS011;8313;49.894;8.084;2023-08-12T00:46:47;4.17;;;3.77;;
16407;SDS011;8313;49.894;8.084;2023-08-12T00:49:14;4.50;;;4.10;;
16407;SDS011;8313;49.894;8.084;2023-08-12T00:51:41;4.90;;;4.40;;
16407;SDS011;8313;49.894;8.084;2023-08-12T00:54:09;4.70;;;4.30;;
16407;SDS011;8313;49.894;8.084;2023-08-12T00:56:38;9.53;;;5.13;;
16407;SDS011;8313;49.894;8.084;2023-08-12T00:59:04;4.63;;;4.23;;
16407;SDS011;8313;49.894;8.084;2023-08-12T01:01:32;4.97;;;4.47;;
16407;SDS011;8313;49.894;8.084;2023-08-12T01:03:58;5.27;;;4.50;;
16407;SDS011;8313;49.894;8.084;2023-08-12T01:06:24;4.67;;;4.20;;
16407;SDS011;8313;49.894;8.084;2023-08-12T01:08:50;5.53;;;4.73;;
16407;SDS011;8313;49.894;8.084;2023-08-12T01:16:40;4.83;;;4.43;;
16407;SDS011;8313;49.894;8.084;2023-08-12T01:19:10;4.80;;;4.40;;
16407;SDS011;8313;49.894;8.084;2023-08-12T01:21:40;4.63;;;4.30;;
16407;SDS011;8313;49.894;8.084;2023-08-12T01:24:09;4.70;;;4.30;;
16407;SDS011;8313;49.894;8.084;2023-08-12T01:26:35;6.20;;;5.50;;
16407;SDS011;8313;49.894;8.084;2023-08-12T01:29:01;5.47;;;4.50;;
16407;SDS011;8313;49.894;8.084;2023-08-12T01:31:39;5.10;;;4.67;;
16407;SDS011;8313;49.894;8.084;2023-08-12T01:34:22;5.23;;;4.03;;
16407;SDS011;8313;49.894;8.084;2023-08-12T01:36:59;5.43;;;4.30;;
16407;SDS011;8313;49.894;8.084;2023-08-12T01:39:27;5.87;;;4.83;;
16407;SDS011;8313;49.894;8.084;2023-08-12T01:41:54;10.60;;;4.47;;
16407;SDS011;8313;49.894;8.084;2023-08-12T01:44:21;6.07;;;4.90;;
16407;SDS011;8313;49.894;8.084;2023-08-12T01:46:47;4.73;;;4.33;;
16407;SDS011;8313;49.894;8.084;2023-08-12T01:49:14;5.70;;;4.27;;
16407;SDS011;8313;49.894;8.084;2023-08-12T01:51:41;6.63;;;6.03;;
16407;SDS011;8313;49.894;8.084;2023-08-12T01:54:07;6.13;;;5.63;;
16407;SDS011;8313;49.894;8.084;2023-08-12T01:56:33;5.60;;;5.10;;
16407;SDS011;8313;49.894;8.084;2023-08-12T01:58:59;6.07;;;5.47;;
16407;SDS011;8313;49.894;8.084;2023-08-12T02:01:25;8.30;;;5.47;;
16407;SDS011;8313;49.894;8.084;2023-08-12T02:03:52;10.90;;;6.53;;
16407;SDS011;8313;49.894;8.084;2023-08-12T02:06:17;6.97;;;5.93;;
16407;SDS011;8313;49.894;8.084;2023-08-12T02:08:44;5.73;;;5.23;;
16407;SDS011;8313;49.894;8.084;2023-08-12T02:11:10;6.60;;;5.33;;
16407;SDS011;8313;49.894;8.084;2023-08-12T02:13:36;6.23;;;5.63;;
16407;SDS011;8313;49.894;8.084;2023-08-12T02:16:01;5.40;;;4.93;;
16407;SDS011;8313;49.894;8.084;2023-08-12T02:18:27;7.67;;;6.17;;
16407;SDS011;8313;49.894;8.084;2023-08-12T02:20:52;6.77;;;6.17;;
16407;SDS011;8313;49.894;8.084;2023-08-12T02:23:18;9.40;;;8.63;;
16407;SDS011;8313;49.894;8.084;2023-08-12T02:25:44;7.03;;;6.37;;
16407;SDS011;8313;49.894;8.084;2023-08-12T02:28:09;6.90;;;6.27;;
16407;SDS011;8313;49.894;8.084;2023-08-12T02:30:35;7.03;;;6.33;;
16407;SDS011;8313;49.894;8.084;2023-08-12T02:33:01;7.90;;;7.10;;
16407;SDS011;8313;49.894;8.084;2023-08-12T02:35:27;6.37;;;5.87;;
16407;SDS011;8313;49.894;8.084;2023-08-12T02:37:52;6.70;;;6.10;;
16407;SDS011;8313;49.894;8.084;2023-08-12T02:40:18;8.70;;;5.63;;
16407;SDS011;8313;49.894;8.084;2023-08-12T02:42:44;6.53;;;5.50;;
16407;SDS011;8313;49.894;8.084;2023-08-12T02:45:09;5.57;;;4.93;;
16407;SDS011;8313;49.894;8.084;2023-08-12T02:47:35;7.00;;;5.33;;
16407;SDS011;8313;49.894;8.084;2023-08-12T02:50:01;5.73;;;5.23;;
16407;SDS011;8313;49.894;8.084;2023-08-12T02:52:27;6.33;;;5.80;;
16407;SDS011;8313;49.894;8.084;2023-08-12T02:54:53;5.90;;;5.40;;
16407;SDS011;8313;49.894;8.084;2023-08-12T02:57:21;5.10;;;4.60;;
16407;SDS011;8313;49.894;8.084;2023-08-12T02:59:47;5.97;;;5.47;;
16407;SDS011;8313;49.894;8.084;2023-08-12T03:02:12;6.17;;;5.47;;
16407;SDS011;8313;49.894;8.084;2023-08-12T03:04:38;5.13;;;4.63;;
16407;SDS011;8313;49.894;8.084;2023-08-12T03:07:04;5.70;;;5.13;;
16407;SDS011;8313;49.894;8.084;2023-08-12T03:09:29;5.87;;;5.37;;
16407;SDS011;8313;49.894;8.084;2023-08-12T03:11:55;6.17;;;5.57;;
16407;SDS011;8313;49.894;8.084;2023-08-12T03:14:22;5.30;;;4.90;;
16407;SDS011;8313;49.894;8.084;2023-08-12T03:16:48;5.10;;;4.60;;
16407;SDS011;8313;49.894;8.084;2023-08-12T03:19:14;5.90;;;5.30;;
16407;SDS011;8313;49.894;8.084;2023-08-12T03:21:40;6.53;;;5.93;;
16407;SDS011;8313;49.894;8.084;2023-08-12T03:24:06;6.13;;;5.53;;
16407;SDS011;8313;49.894;8.084;2023-08-12T03:26:32;6.53;;;5.93;;
16407;SDS011;8313;49.894;8.084;2023-08-12T03:28:58;5.83;;;5.00;;
16407;SDS011;8313;49.894;8.084;2023-08-12T03:31:23;5.53;;;5.03;;
16407;SDS011;8313;49.894;8.084;2023-08-12T03:33:51;5.63;;;5.00;;
16407;SDS011;8313;49.894;8.084;2023-08-12T03:36:16;5.93;;;5.33;;
16407;SDS011;8313;49.894;8.084;2023-08-12T03:38:42;5.20;;;4.70;;
16407;SDS011;8313;49.894;8.084;2023-08-12T03:41:12;6.57;;;5.90;;
16407;SDS011;8313;49.894;8.084;2023-08-12T03:43:38;8.37;;;5.27;;
16407;SDS011;8313;49.894;8.084;2023-08-12T03:46:04;5.40;;;4.80;;
16407;SDS011;8313;49.894;8.084;2023-08-12T03:48:31;5.17;;;4.67;;
16407;SDS011;8313;49.894;8.084;2023-08-12T03:50:58;5.20;;;4.77;;
16407;SDS011;8313;49.894;8.084;2023-08-12T03:53:23;6.30;;;4.80;;
16407;SDS011;8313;49.894;8.084;2023-08-12T03:55:50;7.83;;;5.67;;
16407;SDS011;8313;49.894;8.084;2023-08-12T03:58:17;5.57;;;4.80;;
16407;SDS011;8313;49.894;8.084;2023-08-12T04:00:43;12.37;;;6.53;;
16407;SDS011;8313;49.894;8.084;2023-08-12T04:03:09;5.83;;;5.30;;
16407;SDS011;8313;49.894;8.084;2023-08-12T04:05:35;5.20;;;4.67;;
16407;SDS011;8313;49.894;8.084;2023-08-12T04:08:01;7.00;;;6.00;;
16407;SDS011;8313;49.894;8.084;2023-08-12T04:10:28;8.60;;;5.80;;
16407;SDS011;8313;49.894;8.084;2023-08-12T04:12:55;5.63;;;4.90;;
16407;SDS011;8313;49.894;8.084;2023-08-12T04:15:20;12.53;;;5.80;;
16407;SDS011;8313;49.894;8.084;2023-08-12T04:17:46;4.97;;;4.57;;
16407;SDS011;8313;49.894;8.084;2023-08-12T04:20:11;4.70;;;4.30;;
16407;SDS011;8313;49.894;8.084;2023-08-12T04:22:37;5.20;;;4.70;;
16407;SDS011;8313;49.894;8.084;2023-08-12T04:25:03;5.33;;;4.83;;
16407;SDS011;8313;49.894;8.084;2023-08-12T04:27:29;7.40;;;5.27;;
16407;SDS011;8313;49.894;8.084;2023-08-12T04:29:55;4.47;;;4.10;;
16407;SDS011;8313;49.894;8.084;2023-08-12T04:32:21;4.70;;;4.30;;
16407;SDS011;8313;49.894;8.084;2023-08-12T04:34:47;5.17;;;4.40;;
16407;SDS011;8313;49.894;8.084;2023-08-12T04:37:13;5.80;;;5.30;;
16407;SDS011;8313;49.894;8.084;2023-08-12T04:39:42;6.27;;;5.60;;
16407;SDS011;8313;49.894;8.084;2023-08-12T04:42:10;5.30;;;4.83;;
16407;SDS011;8313;49.894;8.084;2023-08-12T04:44:36;5.17;;;4.77;;
16407;SDS011;8313;49.894;8.084;2023-08-12T04:47:02;5.20;;;4.80;;
16407;SDS011;8313;49.894;8.084;2023-08-12T04:49:28;7.00;;;6.00;;
16407;SDS011;8313;49.894;8.084;2023-08-12T04:51:54;5.07;;;4.60;;
16407;SDS011;8313;49.894;8.084;2023-08-12T04:54:20;7.20;;;4.93;;
16407;SDS011;8313;49.894;8.084;2023-08-12T04:56:47;5.00;;;4.70;;
16407;SDS011;8313;49.894;8.084;2023-08-12T04:59:12;5.30;;;4.80;;
16407;SDS011;8313;49.894;8.084;2023-08-12T05:01:38;5.77;;;4.70;;
16407;SDS011;8313;49.894;8.084;2023-08-12T05:04:04;7.70;;;5.00;;
16407;SDS011;8313;49.894;8.084;2023-08-12T05:06:30;5.93;;;5.33;;
16407;SDS011;8313;49.894;8.084;2023-08-12T05:08:56;5.60;;;4.83;;
16407;SDS011;8313;49.894;8.084;2023-08-12T05:11:22;5.70;;;4.90;;
16407;SDS011;8313;49.894;8.084;2023-08-12T05:13:47;6.10;;;5.23;;
16407;SDS011;8313;49.894;8.084;2023-08-12T05:16:13;6.53;;;5.77;;
16407;SDS011;8313;49.894;8.084;2023-08-12T05:18:39;5.83;;;5.33;;
16407;SDS011;8313;49.894;8.084;2023-08-12T05:21:06;5.73;;;5.00;;
16407;SDS011;8313;49.894;8.084;2023-08-12T05:23:31;5.50;;;5.00;;
16407;SDS011;8313;49.894;8.084;2023-08-12T05:25:57;6.20;;;5.57;;
16407;SDS011;8313;49.894;8.084;2023-08-12T05:28:23;6.40;;;5.80;;
16407;SDS011;8313;49.894;8.084;2023-08-12T05:30:48;6.40;;;5.80;;
16407;SDS011;8313;49.894;8.084;2023-08-12T05:33:14;6.20;;;5.70;;
16407;SDS011;8313;49.894;8.084;2023-08-12T05:35:40;6.63;;;5.40;;
16407;SDS011;8313;49.894;8.084;2023-08-12T05:38:05;5.57;;;5.07;;
16407;SDS011;8313;49.894;8.084;2023-08-12T05:40:31;6.73;;;5.40;;
16407;SDS011;8313;49.894;8.084;2023-08-12T05:42:57;5.80;;;5.30;;
16407;SDS011;8313;49.894;8.084;2023-08-12T05:45:22;5.70;;;4.90;;
16407;SDS011;8313;49.894;8.084;2023-08-12T05:47:48;6.10;;;5.43;;
16407;SDS011;8313;49.894;8.084;2023-08-12T05:50:14;6.00;;;5.47;;
16407;SDS011;8313;49.894;8.084;2023-08-12T05:52:39;11.83;;;5.37;;
16407;SDS011;8313;49.894;8.084;2023-08-12T05:55:05;5.70;;;5.20;;
16407;SDS011;8313;49.894;8.084;2023-08-12T05:57:31;7.27;;;5.50;;
16407;SDS011;8313;49.894;8.084;2023-08-12T05:59:56;5.70;;;5.20;;
16407;SDS011;8313;49.894;8.084;2023-08-12T06:02:22;5.23;;;4.73;;
16407;SDS011;8313;49.894;8.084;2023-08-12T06:04:48;7.07;;;5.63;;
16407;SDS011;8313;49.894;8.084;2023-08-12T06:07:14;8.60;;;5.33;;
16407;SDS011;8313;49.894;8.084;2023-08-12T06:09:40;5.63;;;5.10;;
16407;SDS011;8313;49.894;8.084;2023-08-12T06:12:05;5.60;;;5.07;;
16407;SDS011;8313;49.894;8.084;2023-08-12T06:14:31;5.10;;;4.60;;
16407;SDS011;8313;49.894;8.084;2023-08-12T06:16:57;5.57;;;4.97;;
16407;SDS011;8313;49.894;8.084;2023-08-12T06:19:22;6.37;;;5.33;;
16407;SDS011;8313;49.894;8.084;2023-08-12T06:21:48;7.30;;;5.30;;
16407;SDS011;8313;49.894;8.084;2023-08-12T06:24:14;5.77;;;4.73;;
16407;SDS011;8313;49.894;8.084;2023-08-12T06:26:39;8.23;;;5.80;;
16407;SDS011;8313;49.894;8.084;2023-08-12T06:29:05;5.43;;;4.90;;
16407;SDS011;8313;49.894;8.084;2023-08-12T06:31:30;6.77;;;5.80;;
16407;SDS011;8313;49.894;8.084;2023-08-12T06:33:56;5.57;;;5.07;;
16407;SDS011;8313;49.894;8.084;2023-08-12T06:36:22;6.30;;;5.37;;
16407;SDS011;8313;49.894;8.084;2023-08-12T06:38:48;5.13;;;4.40;;
16407;SDS011;8313;49.894;8.084;2023-08-12T06:41:13;5.27;;;4.77;;
16407;SDS011;8313;49.894;8.084;2023-08-12T06:43:39;5.10;;;4.70;;
16407;SDS011;8313;49.894;8.084;2023-08-12T06:46:05;5.50;;;4.87;;
16407;SDS011;8313;49.894;8.084;2023-08-12T06:48:30;5.17;;;4.63;;
16407;SDS011;8313;49.894;8.084;2023-08-12T06:50:56;6.23;;;5.57;;
16407;SDS011;8313;49.894;8.084;2023-08-12T06:53:22;5.80;;;5.10;;
16407;SDS011;8313;49.894;8.084;2023-08-12T06:55:50;5.97;;;5.37;;
16407;SDS011;8313;49.894;8.084;2023-08-12T06:58:16;4.97;;;4.50;;
16407;SDS011;8313;49.894;8.084;2023-08-12T07:00:41;6.43;;;5.70;;
16407;SDS011;8313;49.894;8.084;2023-08-12T07:03:07;6.07;;;5.10;;
16407;SDS011;8313;49.894;8.084;2023-08-12T07:05:33;5.33;;;4.83;;
16407;SDS011;8313;49.894;8.084;2023-08-12T07:07:59;5.83;;;5.33;;
16407;SDS011;8313;49.894;8.084;2023-08-12T07:10:24;5.33;;;4.83;;
16407;SDS011;8313;49.894;8.084;2023-08-12T07:12:50;5.63;;;4.57;;
16407;SDS011;8313;49.894;8.084;2023-08-12T07:15:16;5.37;;;4.90;;
16407;SDS011;8313;49.894;8.084;2023-08-12T07:17:41;5.63;;;5.10;;
16407;SDS011;8313;49.894;8.084;2023-08-12T07:20:07;5.23;;;4.83;;
16407;SDS011;8313;49.894;8.084;2023-08-12T07:22:33;5.33;;;4.63;;
16407;SDS011;8313;49.894;8.084;2023-08-12T07:24:59;5.00;;;4.60;;
16407;SDS011;8313;49.894;8.084;2023-08-12T07:27:27;5.43;;;4.63;;
16407;SDS011;8313;49.894;8.084;2023-08-12T07:29:53;5.10;;;4.70;;
16407;SDS011;8313;49.894;8.084;2023-08-12T07:32:19;5.83;;;5.40;;
16407;SDS011;8313;49.894;8.084;2023-08-12T07:34:44;4.43;;;4.03;;
16407;SDS011;8313;49.894;8.084;2023-08-12T07:37:10;5.40;;;4.90;;
16407;SDS011;8313;49.894;8.084;2023-08-12T07:39:36;5.57;;;5.00;;
16407;SDS011;8313;49.894;8.084;2023-08-12T07:42:02;5.90;;;4.93;;
16407;SDS011;8313;49.894;8.084;2023-08-12T07:44:28;6.17;;;5.57;;
16407;SDS011;8313;49.894;8.084;2023-08-12T07:46:54;6.67;;;5.00;;
16407;SDS011;8313;49.894;8.084;2023-08-12T07:49:22;5.40;;;5.00;;
16407;SDS011;8313;49.894;8.084;2023-08-12T07:51:48;4.50;;;4.20;;
16407;SDS011;8313;49.894;8.084;2023-08-12T07:54:14;5.63;;;5.13;;
16407;SDS011;8313;49.894;8.084;2023-08-12T07:56:39;4.77;;;4.37;;
16407;SDS011;8313;49.894;8.084;2023-08-12T07:59:05;6.03;;;5.53;;
16407;SDS011;8313;49.894;8.084;2023-08-12T08:01:31;7.00;;;5.00;;
16407;SDS011;8313;49.894;8.084;2023-08-12T08:03:56;6.03;;;5.13;;
16407;SDS011;8313;49.894;8.084;2023-08-12T08:06:22;5.50;;;5.00;;
16407;SDS011;8313;49.894;8.084;2023-08-12T08:08:51;6.43;;;5.80;;
16407;SDS011;8313;49.894;8.084;2023-08-12T08:11:17;5.60;;;5.10;;
16407;SDS011;8313;49.894;8.084;2023-08-12T08:13:42;5.70;;;5.20;;
16407;SDS011;8313;49.894;8.084;2023-08-12T08:16:11;6.47;;;4.87;;
16407;SDS011;8313;49.894;8.084;2023-08-12T08:18:36;8.50;;;5.87;;
16407;SDS011;8313;49.894;8.084;2023-08-12T08:21:02;7.23;;;5.77;;
16407;SDS011;8313;49.894;8.084;2023-08-12T08:23:28;5.90;;;5.30;;
16407;SDS011;8313;49.894;8.084;2023-08-12T08:25:53;5.80;;;5.23;;
16407;SDS011;8313;49.894;8.084;2023-08-12T08:28:19;6.07;;;5.47;;
16407;SDS011;8313;49.894;8.084;2023-08-12T08:30:45;7.77;;;5.20;;
16407;SDS011;8313;49.894;8.084;2023-08-12T08:33:10;5.47;;;5.07;;
16407;SDS011;8313;49.894;8.084;2023-08-12T08:35:36;6.20;;;5.20;;
16407;SDS011;8313;49.894;8.084;2023-08-12T08:38:02;4.50;;;4.20;;
16407;SDS011;8313;49.894;8.084;2023-08-12T08:40:27;5.33;;;4.93;;
16407;SDS011;8313;49.894;8.084;2023-08-12T08:42:53;5.17;;;4.67;;
16407;SDS011;8313;49.894;8.084;2023-08-12T08:45:19;4.80;;;4.40;;
16407;SDS011;8313;49.894;8.084;2023-08-12T08:47:46;4.67;;;4.27;;
16407;SDS011;8313;49.894;8.084;2023-08-12T08:50:13;5.40;;;4.50;;
16407;SDS011;8313;49.894;8.084;2023-08-12T08:52:40;4.70;;;4.30;;
16407;SDS011;8313;49.894;8.084;2023-08-12T08:55:08;5.80;;;4.90;;
16407;SDS011;8313;49.894;8.084;2023-08-12T08:57:35;5.33;;;4.93;;
16407;SDS011;8313;49.894;8.084;2023-08-12T09:00:02;5.87;;;5.47;;
16407;SDS011;8313;49.894;8.084;2023-08-12T09:02:32;4.70;;;4.30;;
16407;SDS011;8313;49.894;8.084;2023-08-12T09:04:58;6.20;;;5.27;;
16407;SDS011;8313;49.894;8.084;2023-08-12T09:07:25;5.67;;;4.20;;
16407;SDS011;8313;49.894;8.084;2023-08-12T09:09:52;4.50;;;4.10;;
16407;SDS011;8313;49.894;8.084;2023-08-12T09:12:19;4.37;;;4.00;;
16407;SDS011;8313;49.894;8.084;2023-08-12T09:14:46;7.03;;;4.20;;
16407;SDS011;8313;49.894;8.084;2023-08-12T09:17:12;4.50;;;4.10;;
16407;SDS011;8313;49.894;8.084;2023-08-12T09:19:37;4.50;;;4.10;;
16407;SDS011;8313;49.894;8.084;2023-08-12T09:22:03;4.60;;;4.20;;
16407;SDS011;8313;49.894;8.084;2023-08-12T09:24:30;4.73;;;4.33;;
16407;SDS011;8313;49.894;8.084;2023-08-12T09:26:56;4.60;;;4.20;;
16407;SDS011;8313;49.894;8.084;2023-08-12T09:29:22;5.27;;;4.77;;
16407;SDS011;8313;49.894;8.084;2023-08-12T09:31:49;4.87;;;4.37;;
16407;SDS011;8313;49.894;8.084;2023-08-12T09:34:15;5.20;;;4.77;;
16407;SDS011;8313;49.894;8.084;2023-08-12T09:36:43;3.67;;;3.43;;
16407;SDS011;8313;49.894;8.084;2023-08-12T09:39:09;4.67;;;4.07;;
16407;SDS011;8313;49.894;8.084;2023-08-12T09:41:34;4.30;;;3.90;;
16407;SDS011;8313;49.894;8.084;2023-08-12T09:44:03;3.50;;;3.30;;
16407;SDS011;8313;49.894;8.084;2023-08-12T09:46:29;4.00;;;3.67;;
16407;SDS011;8313;49.894;8.084;2023-08-12T09:48:58;4.03;;;3.60;;
16407;SDS011;8313;49.894;8.084;2023-08-12T09:51:24;4.30;;;3.90;;
16407;SDS011;8313;49.894;8.084;2023-08-12T09:53:51;5.07;;;4.07;;
16407;SDS011;8313;49.894;8.084;2023-08-12T09:56:17;4.00;;;3.70;;
16407;SDS011;8313;49.894;8.084;2023-08-12T09:58:46;4.60;;;4.20;;
16407;SDS011;8313;49.894;8.084;2023-08-12T10:01:13;5.87;;;5.00;;
16407;SDS011;8313;49.894;8.084;2023-08-12T10:03:43;8.07;;;4.60;;
16407;SDS011;8313;49.894;8.084;2023-08-12T10:06:13;5.10;;;4.60;;
16407;SDS011;8313;49.894;8.084;2023-08-12T10:08:39;4.23;;;3.93;;
16407;SDS011;8313;49.894;8.084;2023-08-12T10:11:05;4.50;;;4.10;;
16407;SDS011;8313;49.894;8.084;2023-08-12T10:13:33;3.90;;;3.60;;
16407;SDS011;8313;49.894;8.084;2023-08-12T10:15:59;4.07;;;3.77;;
16407;SDS011;8313;49.894;8.084;2023-08-12T10:18:25;4.57;;;3.23;;
16407;SDS011;8313;49.894;8.084;2023-08-12T10:20:56;5.00;;;3.57;;
16407;SDS011;8313;49.894;8.084;2023-08-12T10:23:24;3.80;;;3.50;;
16407;SDS011;8313;49.894;8.084;2023-08-12T10:25:53;3.30;;;3.10;;
16407;SDS011;8313;49.894;8.084;2023-08-12T10:28:20;5.27;;;3.30;;
16407;SDS011;8313;49.894;8.084;2023-08-12T10:30:46;4.00;;;3.70;;
16407;SDS011;8313;49.894;8.084;2023-08-12T10:33:13;4.53;;;3.43;;
16407;SDS011;8313;49.894;8.084;2023-08-12T10:35:44;6.60;;;3.73;;
16407;SDS011;8313;49.894;8.084;2023-08-12T10:38:14;5.43;;;4.07;;
16407;SDS011;8313;49.894;8.084;2023-08-12T10:40:42;3.70;;;3.40;;
16407;SDS011;8313;49.894;8.084;2023-08-12T10:43:09;4.30;;;3.70;;
16407;SDS011;8313;49.894;8.084;2023-08-12T10:45:52;4.50;;;3.63;;
16407;SDS011;8313;49.894;8.084;2023-08-12T10:48:22;6.10;;;3.93;;
16407;SDS011;8313;49.894;8.084;2023-08-12T10:50:57;5.80;;;3.20;;
16407;SDS011;8313;49.894;8.084;2023-08-12T10:53:28;3.93;;;3.03;;
16407;SDS011;8313;49.894;8.084;2023-08-12T10:55:57;4.73;;;3.60;;
16407;SDS011;8313;49.894;8.084;2023-08-12T11:01:08;2.80;;;2.60;;
16407;SDS011;8313;49.894;8.084;2023-08-12T11:03:41;3.10;;;2.90;;
16407;SDS011;8313;49.894;8.084;2023-08-12T11:06:09;3.40;;;3.20;;
16407;SDS011;8313;49.894;8.084;2023-08-12T11:08:35;4.93;;;3.33;;
16407;SDS011;8313;49.894;8.084;2023-08-12T11:11:02;3.13;;;2.90;;
16407;SDS011;8313;49.894;8.084;2023-08-12T11:13:28;3.13;;;2.93;;
16407;SDS011;8313;49.894;8.084;2023-08-12T11:16:05;5.17;;;3.70;;
16407;SDS011;8313;49.894;8.084;2023-08-12T11:18:33;3.10;;;2.90;;
16407;SDS011;8313;49.894;8.084;2023-08-12T11:21:00;4.10;;;3.63;;
16407;SDS011;8313;49.894;8.084;2023-08-12T11:23:26;3.60;;;3.30;;
16407;SDS011;8313;49.894;8.084;2023-08-12T11:25:53;3.30;;;2.90;;
16407;SDS011;8313;49.894;8.084;2023-08-12T11:28:19;3.50;;;3.20;;
16407;SDS011;8313;49.894;8.084;2023-08-12T11:30:47;3.53;;;3.23;;
16407;SDS011;8313;49.894;8.084;2023-08-12T11:33:15;8.13;;;3.10;;
16407;SDS011;8313;49.894;8.084;2023-08-12T11:35:43;3.10;;;2.90;;
16407;SDS011;8313;49.894;8.084;2023-08-12T11:38:09;4.03;;;2.90;;
16407;SDS011;8313;49.894;8.084;2023-08-12T11:40:35;3.10;;;2.80;;
16407;SDS011;8313;49.894;8.084;2023-08-12T11:43:01;3.73;;;3.47;;
16407;SDS011;8313;49.894;8.084;2023-08-12T11:45:28;4.13;;;3.53;;
16407;SDS011;8313;49.894;8.084;2023-08-12T11:47:53;4.03;;;3.00;;
16407;SDS011;8313;49.894;8.084;2023-08-12T11:50:20;3.43;;;3.13;;
16407;SDS011;8313;49.894;8.084;2023-08-12T11:52:47;3.90;;;3.03;;
16407;SDS011;8313;49.894;8.084;2023-08-12T11:55:13;3.80;;;3.40;;
16407;SDS011;8313;49.894;8.084;2023-08-12T11:57:39;3.53;;;3.20;;
16407;SDS011;8313;49.894;8.084;2023-08-12T12:00:07;4.10;;;3.53;;
16407;SDS011;8313;49.894;8.084;2023-08-12T12:02:39;3.77;;;3.50;;
16407;SDS011;8313;49.894;8.084;2023-08-12T12:05:12;3.50;;;3.10;;
16407;SDS011;8313;49.894;8.084;2023-08-12T12:07:39;3.70;;;3.10;;
16407;SDS011;8313;49.894;8.084;2023-08-12T12:10:05;5.07;;;3.77;;
16407;SDS011;8313;49.894;8.084;2023-08-12T12:12:34;2.80;;;2.60;;
16407;SDS011;8313;49.894;8.084;2023-08-12T12:15:01;3.07;;;2.83;;
16407;SDS011;8313;49.894;8.084;2023-08-12T12:17:27;3.90;;;3.50;;
16407;SDS011;8313;49.894;8.084;2023-08-12T12:19:54;2.77;;;2.57;;
16407;SDS011;8313;49.894;8.084;2023-08-12T12:22:28;2.90;;;2.50;;
16407;SDS011;8313;49.894;8.084;2023-08-12T12:24:59;2.97;;;2.77;;
16407;SDS011;8313;49.894;8.084;2023-08-12T12:27:26;3.20;;;2.80;;
16407;SDS011;8313;49.894;8.084;2023-08-12T12:29:52;3.73;;;3.43;;
16407;SDS011;8313;49.894;8.084;2023-08-12T12:32:19;4.20;;;3.90;;
16407;SDS011;8313;49.894;8.084;2023-08-12T12:34:45;3.37;;;3.07;;
16407;SDS011;8313;49.894;8.084;2023-08-12T12:37:11;5.00;;;3.13;;
16407;SDS011;8313;49.894;8.084;2023-08-12T12:39:38;3.80;;;3.47;;
16407;SDS011;8313;49.894;8.084;2023-08-12T12:42:04;3.27;;;3.00;;
16407;SDS011;8313;49.894;8.084;2023-08-12T12:44:30;3.87;;;3.23;;
16407;SDS011;8313;49.894;8.084;2023-08-12T12:46:56;4.30;;;3.30;;
16407;SDS011;8313;49.894;8.084;2023-08-12T12:49:22;3.47;;;3.23;;
16407;SDS011;8313;49.894;8.084;2023-08-12T12:51:48;3.97;;;3.00;;
16407;SDS011;8313;49.894;8.084;2023-08-12T12:54:14;5.87;;;2.77;;
16407;SDS011;8313;49.894;8.084;2023-08-12T12:56:40;3.30;;;3.00;;
16407;SDS011;8313;49.894;8.084;2023-08-12T12:59:06;3.57;;;3.37;;
16407;SDS011;8313;49.894;8.084;2023-08-12T13:01:31;4.63;;;3.43;;
16407;SDS011;8313;49.894;8.084;2023-08-12T13:03:57;3.07;;;2.87;;
16407;SDS011;8313;49.894;8.084;2023-08-12T13:06:23;3.80;;;3.50;;
16407;SDS011;8313;49.894;8.084;2023-08-12T13:08:49;3.57;;;3.27;;
16407;SDS011;8313;49.894;8.084;2023-08-12T13:11:15;4.28;;;3.97;;
16407;SDS011;8313;49.894;8.084;2023-08-12T13:13:41;5.10;;;3.90;;
16407;SDS011;8313;49.894;8.084;2023-08-12T13:16:06;4.07;;;3.77;;
16407;SDS011;8313;49.894;8.084;2023-08-12T13:18:35;6.37;;;5.77;;
16407;SDS011;8313;49.894;8.084;2023-08-12T13:21:01;5.95;;;5.45;;
16407;SDS011;8313;49.894;8.084;2023-08-12T13:23:26;6.45;;;4.60;;
16407;SDS011;8313;49.894;8.084;2023-08-12T13:25:52;4.75;;;4.35;;
16407;SDS011;8313;49.894;8.084;2023-08-12T13:28:18;4.82;;;4.38;;
16407;SDS011;8313;49.894;8.084;2023-08-12T13:30:44;4.80;;;4.37;;
16407;SDS011;8313;49.894;8.084;2023-08-12T13:33:10;5.05;;;4.55;;
16407;SDS011;8313;49.894;8.084;2023-08-12T13:35:37;4.18;;;3.78;;
16407;SDS011;8313;49.894;8.084;2023-08-12T13:38:03;3.80;;;3.30;;
16407;SDS011;8313;49.894;8.084;2023-08-12T13:40:29;5.25;;;4.75;;
16407;SDS011;8313;49.894;8.084;2023-08-12T13:42:55;4.75;;;4.10;;
16407;SDS011;8313;49.894;8.084;2023-08-12T13:45:21;4.20;;;3.80;;
16407;SDS011;8313;49.894;8.084;2023-08-12T13:47:47;4.20;;;3.80;;
16407;SDS011;8313;49.894;8.084;2023-08-12T13:50:13;4.00;;;3.63;;
16407;SDS011;8313;49.894;8.084;2023-08-12T13:52:39;4.63;;;4.22;;
16407;SDS011;8313;49.894;8.084;2023-08-12T13:55:05;5.25;;;4.45;;
16407;SDS011;8313;49.894;8.084;2023-08-12T13:57:31;4.50;;;4.20;;
16407;SDS011;8313;49.894;8.084;2023-08-12T13:59:56;4.57;;;4.20;;
16407;SDS011;8313;49.894;8.084;2023-08-12T14:02:22;4.82;;;4.43;;
16407;SDS011;8313;49.894;8.084;2023-08-12T14:04:49;4.55;;;4.25;;
16407;SDS011;8313;49.894;8.084;2023-08-12T14:07:15;5.68;;;5.18;;
16407;SDS011;8313;49.894;8.084;2023-08-12T14:09:41;6.43;;;5.68;;
16407;SDS011;8313;49.894;8.084;2023-08-12T14:12:07;6.00;;;5.45;;
16407;SDS011;8313;49.894;8.084;2023-08-12T14:14:33;6.22;;;5.45;;
16407;SDS011;8313;49.894;8.084;2023-08-12T14:16:58;7.07;;;4.97;;
16407;SDS011;8313;49.894;8.084;2023-08-12T14:19:24;6.90;;;4.80;;
16407;SDS011;8313;49.894;8.084;2023-08-12T14:21:50;4.47;;;4.07;;
16407;SDS011;8313;49.894;8.084;2023-08-12T14:24:15;4.72;;;4.32;;
16407;SDS011;8313;49.894;8.084;2023-08-12T14:26:41;3.33;;;3.10;;
16407;SDS011;8313;49.894;8.084;2023-08-12T14:29:07;3.83;;;3.53;;
16407;SDS011;8313;49.894;8.084;2023-08-12T14:31:33;4.68;;;3.90;;
16407;SDS011;8313;49.894;8.084;2023-08-12T14:33:59;3.67;;;3.42;;
16407;SDS011;8313;49.894;8.084;2023-08-12T14:36:26;3.00;;;2.80;;
16407;SDS011;8313;49.894;8.084;2023-08-12T14:38:52;3.55;;;3.25;;
16407;SDS011;8313;49.894;8.084;2023-08-12T14:41:17;4.22;;;3.83;;
16407;SDS011;8313;49.894;8.084;2023-08-12T14:43:43;3.53;;;3.22;;
16407;SDS011;8313;49.894;8.084;2023-08-12T14:46:09;3.60;;;3.30;;
16407;SDS011;8313;49.894;8.084;2023-08-12T14:48:34;3.92;;;3.63;;
16407;SDS011;8313;49.894;8.084;2023-08-12T14:51:00;3.33;;;3.03;;
16407;SDS011;8313;49.894;8.084;2023-08-12T14:53:26;4.15;;;3.75;;
16407;SDS011;8313;49.894;8.084;2023-08-12T14:55:52;3.53;;;3.20;;
16407;SDS011;8313;49.894;8.084;2023-08-12T14:58:18;4.50;;;3.50;;
16407;SDS011;8313;49.894;8.084;2023-08-12T15:00:43;3.65;;;3.35;;
16407;SDS011;8313;49.894;8.084;2023-08-12T15:03:11;2.93;;;2.73;;